createdAt,value
2022-09-10T00:02:17.390Z,15.28
2022-09-10T00:04:59.397Z,15.31
2022-09-10T00:07:39.043Z,15.30
2022-09-10T00:10:18.761Z,15.19
2022-09-10T00:12:59.205Z,15.25
2022-09-10T00:15:41.339Z,15.25
2022-09-10T00:18:23.946Z,15.19
2022-09-10T00:21:08.031Z,15.14
2022-09-10T00:23:48.969Z,15.24
2022-09-10T00:26:30.016Z,15.23
2022-09-10T00:29:11.873Z,15.17
2022-09-10T00:31:54.795Z,15.29
2022-09-10T00:34:36.276Z,15.23
2022-09-10T00:37:16.130Z,15.21
2022-09-10T00:39:55.388Z,15.23
2022-09-10T00:42:34.049Z,15.24
2022-09-10T00:45:19.667Z,15.21
2022-09-10T00:48:03.484Z,15.23
2022-09-10T00:50:44.816Z,15.17
2022-09-10T00:53:28.329Z,15.21
2022-09-10T00:56:08.770Z,15.24
2022-09-10T00:58:49.136Z,15.27
2022-09-10T01:01:31.070Z,15.25
2022-09-10T01:04:12.170Z,15.20
2022-09-10T01:06:52.831Z,15.19
2022-09-10T01:09:34.270Z,15.20
2022-09-10T01:12:26.569Z,15.26
2022-09-10T01:15:15.670Z,15.25
2022-09-10T01:18:04.343Z,15.30
2022-09-10T01:21:01.616Z,15.31
2022-09-10T01:24:14.770Z,15.30
2022-09-10T01:27:11.141Z,15.31
2022-09-10T01:29:58.455Z,15.29
2022-09-10T01:32:47.418Z,15.31
2022-09-10T01:35:36.427Z,15.31
2022-09-10T01:38:22.625Z,15.30
2022-09-10T01:41:17.133Z,15.33
2022-09-10T01:43:55.994Z,15.36
2022-09-10T01:46:41.395Z,15.37
2022-09-10T01:49:28.421Z,15.37
2022-09-10T01:52:18.558Z,15.35
2022-09-10T01:55:06.609Z,15.35
2022-09-10T01:57:55.266Z,15.37
2022-09-10T02:00:42.675Z,15.29
2022-09-10T02:03:26.467Z,15.36
2022-09-10T02:06:09.366Z,15.32
2022-09-10T02:08:50.867Z,15.33
2022-09-10T02:11:32.932Z,15.42
2022-09-10T02:14:17.049Z,15.44
2022-09-10T02:17:27.078Z,15.39
2022-09-10T02:20:09.361Z,15.40
2022-09-10T02:22:53.442Z,15.46
2022-09-10T02:25:34.505Z,15.47
2022-09-10T02:28:16.780Z,15.52
2022-09-10T02:31:01.625Z,15.52
2022-09-10T02:33:42.029Z,15.44
2022-09-10T02:36:26.027Z,15.41
2022-09-10T02:39:05.663Z,15.47
2022-09-10T02:41:45.456Z,15.46
2022-09-10T02:44:27.062Z,15.35
2022-09-10T02:47:06.808Z,15.39
2022-09-10T02:49:47.389Z,15.27
2022-09-10T02:52:42.955Z,15.20
2022-09-10T02:55:25.701Z,15.25
2022-09-10T02:58:06.989Z,15.22
2022-09-10T03:00:49.743Z,15.26
2022-09-10T03:03:30.611Z,15.20
2022-09-10T03:06:12.088Z,15.31
2022-09-10T03:08:55.554Z,15.36
2022-09-10T03:11:39.702Z,15.34
2022-09-10T03:14:22.185Z,15.33
2022-09-10T03:17:05.100Z,15.39
2022-09-10T03:19:45.467Z,15.32
2022-09-10T03:22:25.295Z,15.31
2022-09-10T03:25:05.923Z,15.27
2022-09-10T03:27:46.530Z,15.29
2022-09-10T03:30:28.304Z,15.21
2022-09-10T03:33:08.075Z,15.29
2022-09-10T03:35:49.202Z,15.24
2022-09-10T03:38:32.554Z,15.17
2022-09-10T03:41:14.333Z,15.27
2022-09-10T03:43:55.297Z,15.18
2022-09-10T03:46:34.738Z,15.15
2022-09-10T03:49:16.115Z,15.24
2022-09-10T03:51:56.099Z,15.30
2022-09-10T03:54:37.825Z,15.28
2022-09-10T03:57:19.140Z,15.31
2022-09-10T03:59:58.916Z,15.35
2022-09-10T04:02:41.615Z,15.41
2022-09-10T04:05:27.546Z,15.42
2022-09-10T04:08:07.425Z,15.40
2022-09-10T04:10:49.344Z,15.45
2022-09-10T04:13:31.602Z,15.46
2022-09-10T04:16:12.278Z,15.47
2022-09-10T04:18:54.203Z,15.51
2022-09-10T04:21:34.659Z,15.38
2022-09-10T04:24:14.444Z,15.33
2022-09-10T04:26:54.307Z,15.31
2022-09-10T04:29:36.016Z,15.28
2022-09-10T04:32:15.871Z,15.19
2022-09-10T04:34:55.284Z,15.16
2022-09-10T04:37:35.621Z,15.22
2022-09-10T04:40:17.484Z,14.96
2022-09-10T04:42:59.929Z,15.09
2022-09-10T04:45:41.474Z,14.95
2022-09-10T04:48:21.084Z,14.85
2022-09-10T04:51:15.761Z,14.80
2022-09-10T04:53:59.337Z,14.83
2022-09-10T04:56:42.657Z,14.91
2022-09-10T04:59:22.349Z,14.89
2022-09-10T05:02:03.678Z,14.89
2022-09-10T05:04:45.588Z,14.87
2022-09-10T05:07:24.968Z,14.78
2022-09-10T05:10:05.264Z,14.84
2022-09-10T05:12:47.960Z,14.85
2022-09-10T05:15:29.584Z,14.76
2022-09-10T05:18:09.171Z,14.78
2022-09-10T05:20:49.191Z,14.82
2022-09-10T05:23:27.403Z,14.68
2022-09-10T05:26:10.032Z,14.74
2022-09-10T05:28:51.144Z,14.88
2022-09-10T05:31:31.340Z,14.78
2022-09-10T05:34:11.278Z,14.69
2022-09-10T05:36:51.523Z,14.78
2022-09-10T05:39:30.630Z,14.76
2022-09-10T05:42:10.503Z,14.83
2022-09-10T05:44:51.892Z,14.86
2022-09-10T05:47:31.016Z,14.88
2022-09-10T05:50:15.382Z,14.94
2022-09-10T05:52:54.917Z,14.93
2022-09-10T05:55:35.892Z,14.95
2022-09-10T05:58:16.205Z,14.98
2022-09-10T06:00:55.050Z,15.00
2022-09-10T06:03:34.441Z,15.00
2022-09-10T06:06:15.320Z,15.04
2022-09-10T06:09:01.465Z,15.19
2022-09-10T06:12:00.192Z,15.21
2022-09-10T06:14:40.179Z,15.22
2022-09-10T06:17:21.578Z,15.35
2022-09-10T06:20:01.403Z,15.32
2022-09-10T06:22:48.044Z,15.42
2022-09-10T06:25:37.993Z,15.46
2022-09-10T06:28:19.052Z,15.46
2022-09-10T06:30:57.993Z,15.52
2022-09-10T06:33:37.443Z,15.49
2022-09-10T06:36:18.467Z,15.46
2022-09-10T06:38:59.778Z,15.48
2022-09-10T06:41:39.689Z,15.49
2022-09-10T06:44:24.433Z,15.51
2022-09-10T06:47:50.898Z,15.55
2022-09-10T06:50:13.037Z,15.48
2022-09-10T06:52:56.959Z,15.57
2022-09-10T06:55:37.298Z,15.65
2022-09-10T06:58:28.905Z,15.65
2022-09-10T07:01:12.431Z,15.67
2022-09-10T07:03:57.525Z,15.76
2022-09-10T07:06:38.862Z,15.84
2022-09-10T07:09:27.528Z,15.91
2022-09-10T07:12:11.670Z,15.95
2022-09-10T07:14:53.176Z,16.01
2022-09-10T07:17:35.667Z,16.08
2022-09-10T07:20:55.366Z,16.13
2022-09-10T07:23:34.705Z,16.15
2022-09-10T07:26:16.817Z,16.23
2022-09-10T07:29:07.734Z,16.28
2022-09-10T07:31:48.919Z,16.37
2022-09-10T07:34:33.148Z,16.37
2022-09-10T07:37:16.539Z,16.48
2022-09-10T07:39:59.762Z,16.56
2022-09-10T07:42:39.338Z,16.66
2022-09-10T07:45:17.571Z,16.75
2022-09-10T07:48:00.526Z,16.75
2022-09-10T07:50:39.937Z,16.89
2022-09-10T07:53:20.794Z,16.91
2022-09-10T07:56:15.044Z,17.03
2022-09-10T07:58:57.353Z,17.15
2022-09-10T08:01:42.201Z,17.22
2022-09-10T08:04:23.408Z,17.26
2022-09-10T08:07:05.235Z,17.39
2022-09-10T08:09:45.165Z,17.41
2022-09-10T08:12:28.167Z,17.55
2022-09-10T08:15:11.127Z,17.72
2022-09-10T08:17:52.576Z,17.80
2022-09-10T08:20:35.284Z,17.93
2022-09-10T08:23:27.419Z,18.11
2022-09-10T08:26:10.452Z,18.22
2022-09-10T08:28:53.764Z,18.45
2022-09-10T08:31:34.561Z,18.65
2022-09-10T08:34:20.455Z,18.86
2022-09-10T08:37:19.143Z,18.97
2022-09-10T08:39:59.879Z,19.21
2022-09-10T08:43:04.106Z,19.36
2022-09-10T08:45:48.160Z,19.71
2022-09-10T08:48:32.345Z,19.97
2022-09-10T08:51:15.879Z,20.21
2022-09-10T08:54:00.581Z,20.31
2022-09-10T08:56:41.542Z,20.53
2022-09-10T08:59:22.981Z,20.31
2022-09-10T09:02:07.203Z,20.52
2022-09-10T09:04:52.054Z,20.35
2022-09-10T09:07:48.318Z,20.58
2022-09-10T09:10:46.039Z,21.04
2022-09-10T09:13:55.343Z,21.54
2022-09-10T09:16:42.168Z,22.18
2022-09-10T09:19:31.786Z,22.45
2022-09-10T09:22:18.248Z,22.48
2022-09-10T09:25:09.845Z,22.61
2022-09-10T09:27:51.091Z,22.59
2022-09-10T09:30:33.262Z,21.97
2022-09-10T09:33:19.720Z,22.28
2022-09-10T09:36:03.744Z,22.18
2022-09-10T09:38:50.795Z,22.03
2022-09-10T09:41:36.305Z,22.28
2022-09-10T09:44:20.031Z,22.63
2022-09-10T09:47:00.449Z,22.87
2022-09-10T09:49:40.523Z,22.66
2022-09-10T09:52:22.223Z,22.60
2022-09-10T10:05:26.616Z,21.90
2022-09-10T10:08:05.844Z,21.96
2022-09-10T10:10:52.456Z,22.02
2022-09-10T10:13:39.428Z,22.23
2022-09-10T10:16:22.611Z,22.17
2022-09-10T10:19:02.937Z,22.14
2022-09-10T10:21:46.914Z,22.27
2022-09-10T10:24:32.949Z,22.48
2022-09-10T10:27:15.395Z,23.21
2022-09-10T10:29:56.903Z,23.54
2022-09-10T10:32:53.354Z,23.58
2022-09-10T10:35:37.443Z,23.71
2022-09-10T10:38:31.105Z,24.13
2022-09-10T10:41:29.575Z,24.26
2022-09-10T10:44:23.182Z,24.80
2022-09-10T10:47:15.442Z,25.15
2022-09-10T10:50:04.202Z,25.22
2022-09-10T10:52:54.089Z,25.34
2022-09-10T10:55:58.448Z,24.76
2022-09-10T10:58:52.250Z,25.07
2022-09-10T11:01:38.360Z,24.46
2022-09-10T11:04:27.922Z,24.24
2022-09-10T11:07:14.434Z,23.93
2022-09-10T11:09:59.827Z,24.70
2022-09-10T11:12:42.636Z,24.63
2022-09-10T11:15:29.358Z,24.66
2022-09-10T11:18:16.414Z,24.27
2022-09-10T11:21:02.107Z,24.49
2022-09-10T11:23:46.072Z,24.25
2022-09-10T11:26:30.029Z,23.96
2022-09-10T11:29:22.274Z,23.96
2022-09-10T11:32:06.779Z,24.15
2022-09-10T11:34:55.461Z,24.07
2022-09-10T11:37:47.746Z,23.70
2022-09-10T11:40:32.158Z,23.04
2022-09-10T11:43:14.301Z,23.33
2022-09-10T11:45:58.703Z,24.01
2022-09-10T11:48:43.543Z,24.49
2022-09-10T11:51:27.975Z,24.64
2022-09-10T11:54:13.897Z,24.65
2022-09-10T11:56:59.589Z,24.71
2022-09-10T11:59:56.554Z,24.71
2022-09-10T12:03:17.161Z,24.81
2022-09-10T12:06:07.119Z,24.64
2022-09-10T12:09:00.946Z,24.83
2022-09-10T12:11:44.990Z,24.77
2022-09-10T12:14:25.379Z,24.26
2022-09-10T12:17:12.194Z,24.95
2022-09-10T12:19:57.191Z,25.02
2022-09-10T12:22:41.850Z,25.73
2022-09-10T12:25:34.748Z,25.69
2022-09-10T12:28:47.116Z,25.80
2022-09-10T12:31:28.872Z,25.66
2022-09-10T12:34:17.502Z,25.92
2022-09-10T12:37:28.007Z,25.93
2022-09-10T12:40:49.571Z,25.99
2022-09-10T12:43:55.902Z,25.72
2022-09-10T12:46:36.481Z,25.35
2022-09-10T12:50:03.030Z,24.93
2022-09-10T12:53:31.204Z,24.67
2022-09-10T12:56:29.213Z,24.28
2022-09-10T12:59:37.860Z,24.18
2022-09-10T13:02:23.119Z,23.99
2022-09-10T13:05:07.255Z,23.95
2022-09-10T13:07:49.218Z,23.87
2022-09-10T13:10:34.298Z,23.46
2022-09-10T13:13:33.929Z,22.89
2022-09-10T13:16:40.621Z,22.76
2022-09-10T13:19:50.104Z,22.42
2022-09-10T13:23:06.045Z,22.04
2022-09-10T13:25:47.646Z,21.94
2022-09-10T13:29:05.873Z,22.06
2022-09-10T13:31:59.097Z,22.12
2022-09-10T13:35:10.396Z,22.30
2022-09-10T13:38:19.657Z,22.31
2022-09-10T13:41:13.109Z,22.24
2022-09-10T13:44:09.669Z,22.31
2022-09-10T13:46:56.552Z,22.42
2022-09-10T13:49:41.242Z,22.41
2022-09-10T13:52:26.015Z,22.61
2022-09-10T13:55:08.593Z,22.75
2022-09-10T13:57:51.077Z,22.74
2022-09-10T14:00:35.651Z,22.47
2022-09-10T14:03:22.782Z,22.67
2022-09-10T14:06:05.257Z,22.72
2022-09-10T14:09:06.030Z,22.77
2022-09-10T14:11:47.339Z,22.86
2022-09-10T14:14:31.673Z,22.49
2022-09-10T14:17:13.751Z,22.71
2022-09-10T14:19:59.278Z,22.95
2022-09-10T14:22:38.992Z,23.01
2022-09-10T14:25:31.566Z,22.76
2022-09-10T14:28:20.448Z,22.83
2022-09-10T14:31:29.941Z,22.96
2022-09-10T14:34:27.531Z,22.99
2022-09-10T14:37:26.712Z,23.05
2022-09-10T14:40:17.879Z,22.69
2022-09-10T14:43:15.219Z,22.73
2022-09-10T14:45:55.853Z,22.61
2022-09-10T14:48:37.345Z,22.62
2022-09-10T14:51:22.803Z,22.44
2022-09-10T14:54:02.935Z,22.67
2022-09-10T14:56:44.738Z,22.35
2022-09-10T14:59:30.635Z,22.33
2022-09-10T15:02:16.570Z,22.55
2022-09-10T15:04:55.841Z,22.63
2022-09-10T15:07:38.416Z,22.64
2022-09-10T15:10:20.470Z,22.65
2022-09-10T15:13:02.913Z,22.64
2022-09-10T15:15:45.738Z,22.68
2022-09-10T15:18:25.267Z,22.59
2022-09-10T15:21:05.895Z,22.65
2022-09-10T15:23:48.131Z,22.59
2022-09-10T15:26:28.648Z,22.37
2022-09-10T15:29:09.393Z,22.34
2022-09-10T15:31:51.268Z,22.22
2022-09-10T15:34:30.495Z,22.06
2022-09-10T15:37:10.968Z,22.22
2022-09-10T15:39:52.590Z,22.21
2022-09-10T15:42:32.846Z,22.10
2022-09-10T15:45:13.120Z,22.08
2022-09-10T15:47:57.573Z,22.12
2022-09-10T15:50:38.231Z,22.03
2022-09-10T15:53:21.174Z,22.06
2022-09-10T15:56:04.982Z,22.11
2022-09-10T15:58:48.827Z,22.11
2022-09-10T16:01:29.658Z,22.11
2022-09-10T16:04:09.785Z,22.01
2022-09-10T16:06:49.993Z,21.99
2022-09-10T16:09:29.594Z,21.97
2022-09-10T16:12:28.151Z,21.96
2022-09-10T16:15:08.528Z,21.93
2022-09-10T16:17:48.960Z,21.81
2022-09-10T16:20:27.607Z,21.89
2022-09-10T16:23:07.356Z,21.84
2022-09-10T16:25:52.939Z,21.78
2022-09-10T16:28:36.579Z,21.79
2022-09-10T16:31:17.136Z,21.66
2022-09-10T16:33:58.619Z,21.57
2022-09-10T16:36:39.265Z,21.63
2022-09-10T16:39:19.472Z,21.55
2022-09-10T16:42:13.508Z,21.48
2022-09-10T16:44:53.244Z,21.47
2022-09-10T16:47:33.584Z,21.42
2022-09-10T16:50:14.247Z,21.38
2022-09-10T16:52:54.609Z,21.33
2022-09-10T16:55:32.871Z,21.29
2022-09-10T16:58:12.914Z,21.20
2022-09-10T17:00:52.132Z,21.17
2022-09-10T17:03:31.262Z,21.13
2022-09-10T17:06:15.783Z,21.08
2022-09-10T17:08:58.034Z,20.94
2022-09-10T17:11:37.812Z,20.84
2022-09-10T17:14:19.640Z,20.78
2022-09-10T17:17:01.264Z,20.69
2022-09-10T17:19:44.920Z,20.62
2022-09-10T17:22:25.001Z,20.33
2022-09-10T17:25:06.741Z,20.31
2022-09-10T17:27:46.173Z,20.23
2022-09-10T17:30:26.037Z,20.15
2022-09-10T17:33:07.780Z,20.14
2022-09-10T17:35:56.691Z,20.10
2022-09-10T17:38:37.647Z,20.02
2022-09-10T17:41:16.810Z,19.98
2022-09-10T17:43:56.885Z,19.92
2022-09-10T17:46:38.226Z,19.85
2022-09-10T17:49:29.945Z,19.80
2022-09-10T17:52:09.440Z,19.74
2022-09-10T17:54:47.790Z,19.71
2022-09-10T17:57:29.009Z,19.63
2022-09-10T18:00:09.034Z,19.57
2022-09-10T18:03:01.723Z,19.49
2022-09-10T18:05:42.792Z,19.43
2022-09-10T18:08:23.012Z,19.38
2022-09-10T18:11:06.602Z,19.31
2022-09-10T18:13:49.617Z,19.25
2022-09-10T18:16:32.872Z,19.22
2022-09-10T18:19:15.775Z,19.17
2022-09-10T18:21:59.742Z,19.11
2022-09-10T18:24:39.353Z,19.06
2022-09-10T18:27:21.121Z,19.03
2022-09-10T18:30:02.607Z,19.00
2022-09-10T18:32:42.770Z,18.98
2022-09-10T18:35:22.955Z,18.95
2022-09-10T18:38:05.512Z,18.90
2022-09-10T18:40:46.143Z,18.89
2022-09-10T18:43:26.827Z,18.86
2022-09-10T18:46:07.468Z,18.84
2022-09-10T18:48:48.196Z,18.79
2022-09-10T18:51:29.841Z,18.75
2022-09-10T18:54:11.036Z,18.75
2022-09-10T18:56:53.197Z,18.70
2022-09-10T18:59:31.613Z,18.70
2022-09-10T19:02:13.405Z,18.67
2022-09-10T19:05:10.664Z,18.63
2022-09-10T19:07:51.712Z,18.62
2022-09-10T19:10:32.031Z,18.56
2022-09-10T19:13:12.685Z,18.58
2022-09-10T19:15:56.810Z,18.54
2022-09-10T19:18:58.166Z,18.51
2022-09-10T19:21:38.352Z,18.50
2022-09-10T19:24:19.357Z,18.49
2022-09-10T19:27:04.062Z,18.47
2022-09-10T19:29:47.160Z,18.49
2022-09-10T19:32:26.537Z,18.49
2022-09-10T19:35:06.711Z,18.58
2022-09-10T19:37:48.165Z,18.46
2022-09-10T19:40:27.518Z,18.81
2022-09-10T19:43:07.357Z,18.43
2022-09-10T19:45:49.189Z,18.28
2022-09-10T19:48:30.629Z,18.18
2022-09-10T19:51:13.407Z,18.07
2022-09-10T19:53:53.049Z,18.04
2022-09-10T19:56:35.115Z,17.98
2022-09-10T19:59:16.107Z,17.95
2022-09-10T20:01:55.800Z,17.92
2022-09-10T20:04:36.049Z,17.90
2022-09-10T20:07:36.379Z,17.86
2022-09-10T20:10:18.371Z,17.76
2022-09-10T20:12:58.837Z,17.70
2022-09-10T20:15:45.315Z,17.67
2022-09-10T20:18:28.468Z,17.62
2022-09-10T20:21:13.871Z,17.59
2022-09-10T20:23:56.427Z,17.54
2022-09-10T20:26:38.134Z,17.48
2022-09-10T20:29:19.377Z,17.47
2022-09-10T20:32:00.316Z,17.43
2022-09-10T20:34:40.071Z,17.38
2022-09-10T20:37:19.534Z,17.34
2022-09-10T20:40:01.470Z,17.28
2022-09-10T20:42:40.723Z,17.23
2022-09-10T20:45:21.354Z,17.20
2022-09-10T20:48:01.929Z,17.18
2022-09-10T20:50:41.807Z,17.14
2022-09-10T20:53:23.613Z,17.10
2022-09-10T20:56:17.725Z,17.08
2022-09-10T20:58:57.822Z,17.05
2022-09-10T21:01:39.636Z,17.03
2022-09-10T21:04:19.794Z,17.00
2022-09-10T21:07:00.388Z,16.92
2022-09-10T21:09:38.975Z,16.89
2022-09-10T21:12:18.440Z,16.85
2022-09-10T21:14:58.172Z,16.80
2022-09-10T21:17:38.008Z,16.76
2022-09-10T21:20:16.740Z,16.71
2022-09-10T21:22:57.991Z,16.61
2022-09-10T21:25:37.451Z,16.57
2022-09-10T21:28:17.395Z,16.52
2022-09-10T21:31:02.796Z,16.47
2022-09-10T21:33:43.654Z,16.45
2022-09-10T21:36:25.357Z,16.41
2022-09-10T21:39:06.164Z,16.38
2022-09-10T21:41:48.980Z,16.35
2022-09-10T21:44:28.884Z,16.31
2022-09-10T21:47:07.672Z,16.26
2022-09-10T21:49:47.202Z,16.22
2022-09-10T21:52:28.723Z,16.19
2022-09-10T21:55:10.597Z,16.16
2022-09-10T21:57:51.086Z,16.14
2022-09-10T22:00:33.075Z,16.06
2022-09-10T22:03:12.313Z,16.05
2022-09-10T22:05:52.223Z,16.02
2022-09-10T22:08:33.155Z,16.01
2022-09-10T22:11:15.330Z,15.97
2022-09-10T22:13:55.292Z,15.94
2022-09-10T22:16:36.937Z,15.91
2022-09-10T22:19:20.495Z,15.88
2022-09-10T22:22:00.559Z,15.88
2022-09-10T22:24:41.149Z,15.87
2022-09-10T22:27:24.798Z,15.82
2022-09-10T22:30:07.795Z,15.77
2022-09-10T22:32:49.816Z,15.76
2022-09-10T22:35:30.981Z,15.71
2022-09-10T22:38:10.588Z,15.70
2022-09-10T22:40:51.365Z,15.73
2022-09-10T22:43:30.609Z,15.75
2022-09-10T22:46:10.974Z,15.75
2022-09-10T22:48:53.683Z,15.74
2022-09-10T22:51:36.396Z,15.73
2022-09-10T22:54:16.554Z,15.71
2022-09-10T22:56:58.663Z,15.67
2022-09-10T22:59:39.438Z,15.66
2022-09-10T23:02:20.055Z,15.62
2022-09-10T23:05:01.146Z,15.61
2022-09-10T23:07:41.308Z,15.53
2022-09-10T23:10:21.101Z,15.55
2022-09-10T23:13:01.003Z,15.51
2022-09-10T23:15:40.816Z,15.49
2022-09-10T23:18:20.533Z,15.49
2022-09-10T23:21:04.688Z,15.47
2022-09-10T23:23:47.021Z,15.47
2022-09-10T23:26:27.242Z,15.43
2022-09-10T23:29:07.934Z,15.41
2022-09-10T23:31:47.964Z,15.39
2022-09-10T23:34:29.343Z,15.36
2022-09-10T23:37:09.971Z,15.32
2022-09-10T23:39:50.558Z,15.28
2022-09-10T23:42:30.910Z,15.23
2022-09-10T23:45:11.606Z,15.23
2022-09-10T23:47:53.581Z,15.23
2022-09-10T23:50:35.014Z,15.19
2022-09-10T23:53:15.644Z,15.18
2022-09-10T23:55:58.009Z,15.16
2022-09-10T23:58:37.209Z,15.14
